.
WxDataArchive / Data Records for 2011-08-06
2011-08-05 August 2011 2011-08-07

Data Records for Saturday, 06 August 2011

Time	Temp	Chill	HIndex	Humid	Dewpt	 Wind 	HiWind	WindDir	Rain 	Barom 
-----	----	-----	------	-----	-----	------	------	-------	-----	----- 
00:00	75.4	75.4	76.1	80	68.8	0	1	90	0.00	29.882 
00:05	75.3	75.3	76.0	80	68.7	0	1	90	0.00	29.882 
00:10	75.1	75.1	75.7	80	68.5	0	0	---	0.00	29.882 
00:15	74.9	74.9	74.9	80	68.3	0	0	---	0.00	29.890 
00:20	74.7	74.7	74.7	80	68.1	0	0	---	0.00	29.890 
00:25	74.6	74.6	74.6	80	68.0	0	0	---	0.00	29.890 
00:30	74.4	74.4	74.4	81	68.2	0	0	---	0.00	29.892 
00:35	74.2	74.2	74.2	81	68.0	0	0	---	0.00	29.892 
00:40	73.9	73.9	73.9	81	67.7	0	0	---	0.00	29.892 
00:45	73.7	73.7	73.7	82	67.9	0	0	---	0.00	29.891 
00:50	73.5	73.5	73.5	83	68.0	0	0	---	0.00	29.891 
00:55	73.5	73.5	73.5	83	68.0	0	0	---	0.00	29.891 
01:00	73.3	73.3	73.3	84	68.2	0	0	---	0.00	29.892 
01:05	73.2	73.2	73.2	84	68.1	0	0	---	0.00	29.892 
01:10	73.0	73.0	73.0	85	68.2	0	0	---	0.00	29.892 
01:15	72.8	72.8	72.8	85	68.0	0	0	---	0.00	29.890 
01:20	72.8	72.8	72.8	86	68.4	0	0	---	0.00	29.890 
01:25	72.7	72.7	72.7	86	68.3	0	0	---	0.00	29.890 
01:30	72.5	72.5	72.5	86	68.1	0	0	---	0.00	29.890 
01:35	72.5	72.5	72.5	87	68.4	0	0	---	0.00	29.890 
01:40	72.3	72.3	72.3	87	68.2	0	0	---	0.00	29.890 
01:45	72.3	72.3	72.3	88	68.5	0	0	---	0.00	29.889 
01:50	72.3	72.3	72.3	88	68.5	0	0	---	0.00	29.889 
01:55	72.1	72.1	72.1	88	68.3	0	0	---	0.00	29.889 
02:00	72.0	72.0	72.0	88	68.2	0	0	---	0.00	29.888 
02:05	72.0	72.0	72.0	89	68.6	0	0	---	0.00	29.888 
02:10	72.0	72.0	72.0	89	68.6	0	0	---	0.00	29.888 
02:15	72.0	72.0	72.0	89	68.6	0	0	---	0.00	29.887 
02:20	72.0	72.0	72.0	89	68.6	0	0	---	0.00	29.887 
02:25	72.0	72.0	72.0	90	68.9	0	0	---	0.00	29.887 
02:30	71.8	71.8	71.8	90	68.7	0	0	---	0.00	29.888 
02:35	71.8	71.8	71.8	90	68.7	0	0	---	0.00	29.888 
02:40	71.8	71.8	71.8	90	68.7	0	0	---	0.00	29.888 
02:45	71.6	71.6	71.6	90	68.5	0	0	---	0.00	29.878 
02:50	71.6	71.6	71.6	90	68.5	0	0	---	0.00	29.878 
02:55	71.6	71.6	71.6	91	68.8	0	0	---	0.00	29.878 
03:00	71.6	71.6	71.6	91	68.8	0	0	---	0.00	29.874 
03:05	71.5	71.5	71.5	91	68.7	0	0	---	0.00	29.874 
03:10	71.5	71.5	71.5	91	68.7	0	0	---	0.00	29.874 
03:15	71.5	71.5	71.5	91	68.7	0	0	---	0.00	29.874 
03:20	71.3	71.3	71.3	91	68.5	0	0	---	0.00	29.874 
03:25	71.5	71.5	71.5	91	68.7	0	0	---	0.00	29.874 
03:30	71.5	71.5	71.5	91	68.7	0	0	---	0.00	29.873 
03:35	71.5	71.5	71.5	92	69.0	0	0	---	0.00	29.873 
03:40	71.5	71.5	71.5	92	69.0	0	0	---	0.00	29.873 
03:45	71.5	71.5	71.5	92	69.0	0	0	---	0.00	29.873 
03:50	71.5	71.5	71.5	92	69.0	0	0	---	0.00	29.873 
03:55	71.5	71.5	71.5	92	69.0	0	0	---	0.00	29.873 
04:00	71.5	71.5	71.5	92	69.0	0	0	---	0.00	29.870 
04:05	71.5	71.5	71.5	92	69.0	0	0	---	0.00	29.870 
04:10	71.5	71.5	71.5	92	69.0	0	0	---	0.00	29.870 
04:15	71.5	71.5	71.5	92	69.0	0	0	---	0.00	29.871 
04:20	71.5	71.5	71.5	92	69.0	0	0	---	0.00	29.871 
04:25	71.3	71.3	71.3	92	68.8	0	0	---	0.00	29.871 
04:30	71.3	71.3	71.3	92	68.8	0	0	---	0.00	29.870 
04:35	71.3	71.3	71.3	92	68.8	0	0	---	0.00	29.870 
04:40	71.1	71.1	71.1	92	68.7	0	0	---	0.00	29.870 
04:45	70.9	70.9	70.9	92	68.5	0	0	---	0.00	29.863 
04:50	70.9	70.9	70.9	92	68.5	0	0	---	0.00	29.863 
04:55	70.9	70.9	70.9	92	68.5	0	0	---	0.00	29.863 
05:00	70.8	70.8	70.8	92	68.4	0	0	---	0.00	29.863 
05:05	70.8	70.8	70.8	92	68.4	0	0	---	0.00	29.863 
05:10	70.6	70.6	70.6	92	68.2	0	0	---	0.00	29.863 
05:15	70.6	70.6	70.6	92	68.2	0	0	---	0.00	29.862 
05:20	70.4	70.4	70.4	92	68.0	0	0	---	0.00	29.862 
05:25	70.4	70.4	70.4	92	68.0	0	0	---	0.00	29.862 
05:30	70.3	70.3	70.3	92	67.9	0	0	---	0.00	29.859 
05:35	70.3	70.3	70.3	92	67.9	0	0	---	0.00	29.859 
05:40	70.3	70.3	70.3	92	67.9	0	0	---	0.00	29.859 
05:45	70.1	70.1	70.1	93	68.0	0	0	---	0.00	29.856 
05:50	70.1	70.1	70.1	93	68.0	0	0	---	0.00	29.856 
05:55	70.1	70.1	70.1	93	68.0	0	0	---	0.00	29.856 
06:00	69.9	69.9	69.9	93	67.8	0	0	---	0.00	29.857 
06:05	69.9	69.9	69.9	93	67.8	0	0	---	0.00	29.857 
06:10	70.1	70.1	70.1	92	67.7	0	0	---	0.00	29.857 
06:15	70.1	70.1	70.1	92	67.7	0	0	---	0.00	29.852 
06:20	70.1	70.1	70.1	92	67.7	0	0	---	0.00	29.852 
06:25	70.1	70.1	70.1	92	67.7	0	0	---	0.00	29.852 
06:30	69.9	69.9	69.9	92	67.5	0	0	---	0.00	29.853 
06:35	69.9	69.9	69.9	92	67.5	0	0	---	0.00	29.853 
06:40	69.9	69.9	69.9	92	67.5	0	0	---	0.00	29.853 
06:45	69.8	69.8	69.8	92	67.4	0	0	---	0.00	29.855 
06:50	69.8	69.8	69.8	92	67.4	0	0	---	0.00	29.855 
06:55	69.6	69.6	69.6	92	67.2	0	0	---	0.00	29.855 
07:00	69.6	69.6	69.6	92	67.2	0	0	---	0.00	29.859 
07:05	69.6	69.6	69.6	92	67.2	0	0	---	0.00	29.859 
07:10	69.6	69.6	69.6	92	67.2	0	0	---	0.00	29.859 
07:15	69.6	69.6	69.6	92	67.2	0	0	---	0.00	29.856 
07:20	69.8	69.8	69.8	92	67.4	0	0	---	0.00	29.856 
07:25	69.9	69.9	69.9	92	67.5	0	0	---	0.00	29.856 
07:30	70.1	70.1	70.1	92	67.7	0	0	---	0.00	29.856 
07:35	70.4	70.4	70.4	92	68.0	0	1	90	0.00	29.856 
07:40	70.6	70.6	70.6	91	67.8	0	1	90	0.00	29.856 
07:45	70.9	70.9	70.9	90	67.8	0	1	90	0.00	29.856 
07:50	71.5	71.5	71.5	89	68.1	0	1	90	0.00	29.856 
07:55	72.0	72.0	72.0	87	67.9	0	0	---	0.00	29.856 
08:00	72.5	72.5	72.5	85	67.7	0	1	90	0.00	29.854 
08:05	73.0	73.0	73.0	83	67.5	0	1	90	0.00	29.854 
08:10	73.5	73.5	73.5	82	67.7	0	0	---	0.00	29.854 
08:15	73.7	73.7	73.7	81	67.5	0	0	---	0.00	29.858 
08:20	73.7	73.7	73.7	81	67.5	0	1	90	0.00	29.858 
08:25	73.7	73.7	73.7	81	67.5	0	1	90	0.00	29.858 
08:30	73.7	73.7	73.7	81	67.5	0	0	---	0.00	29.856 
08:35	73.7	73.7	73.7	81	67.5	0	0	---	0.00	29.856 
08:40	73.9	73.9	73.9	81	67.7	0	0	---	0.00	29.856 
08:45	73.9	73.9	73.9	81	67.7	0	0	---	0.00	29.861 
08:50	73.7	73.7	73.7	81	67.5	0	0	---	0.00	29.861 
08:55	73.7	73.7	73.7	82	67.9	0	0	---	0.00	29.861 
09:00	73.7	73.7	73.7	83	68.2	0	0	---	0.00	29.860 
09:05	73.7	73.7	73.7	83	68.2	0	0	---	0.00	29.860 
09:10	73.5	73.5	73.5	83	68.0	0	0	---	0.00	29.860 
09:15	73.5	73.5	73.5	84	68.4	0	0	---	0.00	29.862 
09:20	73.5	73.5	73.5	84	68.4	0	0	---	0.00	29.862 
09:25	73.5	73.5	73.5	84	68.4	0	1	90	0.00	29.862 
09:30	73.7	73.7	73.7	84	68.6	0	1	90	0.00	29.853 
09:35	73.9	73.9	73.9	83	68.4	0	1	90	0.00	29.853 
09:40	74.0	74.0	74.0	82	68.1	0	1	90	0.00	29.853 
09:45	74.2	74.2	74.2	82	68.3	0	1	90	0.00	29.851 
09:50	74.6	74.6	74.6	81	68.4	0	2	90	0.00	29.851 
09:55	74.7	74.7	74.7	81	68.5	0	2	90	0.00	29.851 
10:00	74.9	74.9	74.9	81	68.7	0	0	---	0.00	29.852 
10:05	75.1	75.1	75.6	81	68.9	0	1	90	0.00	29.852 
10:10	75.1	75.1	75.6	81	68.9	0	1	90	0.00	29.852 
10:15	75.3	75.3	75.9	81	69.1	0	0	---	0.00	29.864 
10:20	75.4	75.4	76.0	81	69.1	0	0	---	0.00	29.864 
10:25	75.8	75.8	76.6	81	69.5	0	0	---	0.00	29.864 
10:30	76.0	76.0	76.9	81	69.7	0	0	---	0.00	29.855 
10:35	76.1	76.1	77.1	80	69.5	0	1	90	0.00	29.855 
10:40	76.3	76.3	77.5	80	69.7	0	2	90	0.00	29.855 
10:45	76.5	76.5	77.8	79	69.5	0	2	90	0.00	29.852 
10:50	76.8	76.8	78.3	78	69.4	0	3	90	0.00	29.852 
10:55	77.2	77.2	78.9	78	69.8	0	0	---	0.00	29.852 
11:00	77.4	77.4	79.3	77	69.6	0	0	---	0.00	29.854 
11:05	77.6	77.6	79.6	77	69.8	0	0	---	0.00	29.854 
11:10	77.9	77.9	80.1	77	70.1	0	1	90	0.00	29.854 
11:15	78.1	78.1	80.4	77	70.3	0	0	---	0.00	29.851 
11:20	78.5	78.5	81.0	76	70.3	0	0	---	0.00	29.851 
11:25	78.6	78.6	81.1	75	70.0	0	2	90	0.00	29.851 
11:30	79.2	79.2	82.2	76	71.0	0	0	---	0.00	29.845 
11:35	80.1	80.1	83.6	74	71.0	0	2	90	0.00	29.845 
11:40	81.2	81.2	85.0	70	70.5	0	2	90	0.00	29.845 
11:45	82.4	82.4	87.0	69	71.2	0	2	90	0.00	29.841 
11:50	83.0	83.0	87.6	67	70.9	1	2	90	0.00	29.841 
11:55	83.4	83.4	88.1	66	70.8	0	2	90	0.00	29.841 
12:00	84.1	84.1	89.1	65	71.0	0	1	90	0.00	29.841 
12:05	84.5	84.5	89.9	65	71.4	0	2	90	0.00	29.841 
12:10	84.5	84.5	89.9	65	71.4	0	2	90	0.00	29.841 
12:15	84.3	84.3	89.5	65	71.2	1	3	90	0.00	29.837 
12:20	84.1	84.1	89.7	67	71.9	0	2	90	0.00	29.837 
12:25	84.3	84.3	89.8	66	71.7	0	2	90	0.00	29.837 
12:30	85.1	85.1	90.8	64	71.5	1	3	90	0.00	29.828 
12:35	85.7	85.7	91.2	62	71.1	1	2	90	0.00	29.828 
12:40	85.5	85.5	91.2	63	71.4	1	2	90	0.00	29.828 
12:45	85.1	85.1	90.4	63	71.1	0	2	90	0.00	29.822 
12:50	85.1	85.1	90.4	63	71.1	0	2	90	0.00	29.822 
12:55	85.1	85.1	91.1	65	72.0	0	1	90	0.00	29.822 
13:00	85.3	85.3	91.5	65	72.2	0	1	90	0.00	29.813 
13:05	85.7	85.7	92.0	64	72.1	0	1	90	0.00	29.813 
13:10	85.9	85.9	92.0	63	71.8	0	1	90	0.00	29.813 
13:15	85.9	85.9	92.0	63	71.8	0	1	90	0.00	29.811 
13:20	85.5	85.5	91.2	63	71.4	0	2	90	0.00	29.811 
13:25	85.1	85.1	91.1	65	72.0	0	0	---	0.00	29.811 
13:30	84.9	84.9	91.0	66	72.2	0	2	90	0.00	29.806 
13:35	84.7	84.7	91.0	67	72.5	0	3	90	0.00	29.806 
13:40	84.3	84.3	90.5	68	72.6	1	3	90	0.00	29.806 
13:45	84.3	84.3	90.1	67	72.1	0	2	90	0.00	29.800 
13:50	84.5	84.5	90.9	68	72.7	0	3	90	0.00	29.800 
13:55	84.9	84.9	91.0	66	72.2	0	2	135	0.00	29.800 
14:00	85.1	85.1	91.5	66	72.4	0	3	135	0.00	29.799 
14:05	85.5	85.5	91.2	63	71.4	0	1	135	0.00	29.799 
14:10	85.7	85.7	92.0	64	72.1	1	3	135	0.00	29.799 
14:15	85.5	85.5	91.6	64	71.9	0	2	135	0.00	29.798 
14:20	85.3	85.3	91.5	65	72.2	0	1	135	0.00	29.798 
14:25	84.9	84.9	90.7	65	71.8	0	1	135	0.00	29.798 
14:30	84.9	84.9	90.4	64	71.3	0	2	135	0.00	29.798 
14:35	85.1	85.1	90.1	62	70.6	0	2	135	0.00	29.798 
14:40	85.1	85.1	89.8	61	70.1	0	2	270	0.00	29.798 
14:45	85.3	85.3	89.5	59	69.3	0	1	270	0.00	29.793 
14:50	85.5	85.5	89.8	59	69.5	0	3	270	0.00	29.793 
14:55	85.7	85.7	89.9	58	69.2	1	4	292	0.00	29.793 
15:00	85.7	85.7	90.2	59	69.7	0	1	292	0.00	29.788 
15:05	86.1	86.1	90.9	59	70.1	0	1	292	0.00	29.788 
15:10	87.0	87.0	91.9	57	69.9	0	3	292	0.00	29.788 
15:15	87.4	87.4	92.2	56	69.7	1	3	292	0.00	29.784 
15:20	87.2	87.2	91.5	55	69.0	1	2	292	0.00	29.784 
15:25	87.2	87.2	91.5	55	69.0	1	3	292	0.00	29.784 
15:30	87.2	87.2	91.5	55	69.0	1	2	292	0.00	29.778 
15:35	87.2	87.2	91.5	55	69.0	1	2	292	0.00	29.778 
15:40	87.6	87.6	92.2	55	69.4	1	2	292	0.00	29.778 
15:45	88.6	88.6	93.3	53	69.2	1	5	292	0.00	29.769 
15:50	89.3	89.3	93.7	51	68.8	2	6	270	0.00	29.769 
15:55	89.0	89.0	93.2	51	68.5	1	3	270	0.00	29.769 
16:00	89.0	89.0	93.2	51	68.5	1	3	270	0.00	29.764 
16:05	89.9	89.9	94.4	50	68.7	1	3	248	0.00	29.764 
16:10	90.7	90.7	95.9	50	69.5	1	4	270	0.00	29.764 
16:15	90.7	90.7	95.0	48	68.3	1	3	270	0.00	29.758 
16:20	90.7	90.7	95.9	50	69.5	1	4	270	0.00	29.758 
16:25	91.2	91.2	95.9	48	68.7	1	3	270	0.00	29.758 
16:30	91.2	91.2	96.4	49	69.3	1	2	270	0.00	29.751 
16:35	90.7	90.7	95.9	50	69.5	1	5	270	0.00	29.751 
16:40	90.7	90.7	95.9	50	69.5	1	4	270	0.00	29.751 
16:45	90.7	90.7	95.5	49	68.9	1	3	292	0.00	29.749 
16:50	90.3	90.3	95.2	50	69.1	0	2	338	0.00	29.749 
16:55	89.5	89.5	93.7	50	68.4	1	3	338	0.00	29.749 
17:00	88.8	88.8	93.2	52	68.9	1	3	315	0.00	29.748 
17:05	88.4	88.4	92.9	53	69.1	1	3	315	0.00	29.748 
17:10	88.2	88.2	93.4	55	70.0	0	2	315	0.00	29.748 
17:15	88.0	88.0	92.6	54	69.2	1	3	338	0.00	29.747 
17:20	87.8	87.8	93.0	56	70.1	1	5	270	0.00	29.747 
17:25	87.0	87.0	93.1	60	71.4	2	5	270	0.00	29.747 
17:30	85.7	85.7	91.2	62	71.1	2	5	270	0.00	29.751 
17:35	84.9	84.9	90.7	65	71.8	2	4	270	0.00	29.751 
17:40	84.3	84.3	90.5	68	72.6	1	5	270	0.00	29.751 
17:45	84.0	84.0	90.2	69	72.7	2	5	270	0.00	29.752 
17:50	83.8	83.8	90.0	70	72.9	1	3	270	0.00	29.752 
17:55	83.8	83.8	90.0	70	72.9	1	2	270	0.00	29.752 
18:00	83.8	83.8	90.0	70	72.9	0	2	270	0.00	29.755 
18:05	83.8	83.8	89.7	69	72.5	1	3	270	0.00	29.755 
18:10	83.8	83.8	90.0	70	72.9	2	5	270	0.00	29.755 
18:15	83.6	83.6	89.9	71	73.2	1	4	248	0.00	29.751 
18:20	83.6	83.6	89.9	71	73.2	1	2	248	0.00	29.751 
18:25	83.6	83.6	89.6	70	72.8	2	3	248	0.00	29.751 
18:30	83.2	83.2	89.1	71	72.8	1	4	270	0.00	29.753 
18:35	83.2	83.2	89.1	71	72.8	1	3	270	0.00	29.753 
18:40	83.2	83.2	88.8	70	72.4	0	2	270	0.00	29.753 
18:45	83.2	83.2	88.8	70	72.4	1	3	270	0.00	29.750 
18:50	83.6	83.6	89.6	70	72.8	1	3	270	0.00	29.750 
18:55	83.8	83.8	90.0	70	72.9	1	3	270	0.00	29.750 
19:00	83.8	83.8	89.7	69	72.5	1	3	270	0.00	29.750 
19:05	83.6	83.6	89.6	70	72.8	1	4	270	0.00	29.750 
19:10	83.6	83.6	89.6	70	72.8	1	4	270	0.00	29.750 
19:15	83.6	83.6	89.6	70	72.8	1	3	270	0.00	29.750 
19:20	83.6	83.6	89.9	71	73.2	1	3	270	0.00	29.750 
19:25	83.6	83.6	89.9	71	73.2	1	4	270	0.00	29.750 
19:30	83.4	83.4	89.5	71	73.0	1	4	315	0.00	29.746 
19:35	83.4	83.4	89.5	71	73.0	1	4	315	0.00	29.746 
19:40	83.2	83.2	89.4	72	73.2	2	5	270	0.00	29.746 
19:45	83.0	83.0	88.9	72	73.0	1	3	270	0.00	29.742 
19:50	83.0	83.0	88.9	72	73.0	1	3	270	0.00	29.742 
19:55	82.8	82.8	88.8	73	73.2	0	1	270	0.00	29.742 
20:00	82.6	82.6	88.4	73	73.0	1	2	292	0.00	29.738 
20:05	82.6	82.6	88.6	74	73.4	0	2	292	0.00	29.738 
20:10	82.4	82.4	88.2	74	73.3	0	1	292	0.00	29.738 
20:15	82.4	82.4	88.2	74	73.3	0	3	315	0.00	29.744 
20:20	82.2	82.2	88.0	75	73.5	0	2	315	0.00	29.744 
20:25	82.2	82.2	88.0	75	73.5	0	2	315	0.00	29.744 
20:30	82.0	82.0	87.8	76	73.7	0	1	315	0.00	29.743 
20:35	82.0	82.0	88.0	77	74.1	0	1	315	0.00	29.743 
20:40	81.8	81.8	87.8	78	74.2	0	1	315	0.00	29.743 
20:45	81.4	81.4	87.1	79	74.2	0	0	---	0.00	29.743 
20:50	81.2	81.2	86.9	80	74.4	0	1	315	0.00	29.743 
20:55	80.9	80.9	86.6	82	74.9	1	4	315	0.00	29.743 
21:00	79.6	79.6	83.7	83	74.0	2	4	292	0.00	29.750 
21:05	78.5	78.5	81.5	86	73.9	1	3	292	0.03	29.750 
21:10	77.6	77.6	79.6	88	73.8	0	2	292	0.00	29.750 
21:15	77.0	77.0	78.2	89	73.5	1	3	315	0.00	29.761 
21:20	76.7	76.7	77.5	90	73.5	0	2	315	0.01	29.761 
21:25	76.3	76.3	76.6	91	73.5	0	3	315	0.00	29.761 
21:30	76.1	76.1	76.1	91	73.3	0	1	315	0.00	29.762 
21:35	76.0	76.0	75.8	92	73.5	0	1	315	0.00	29.762 
21:40	75.8	75.8	75.4	92	73.3	0	0	---	0.00	29.762 
21:45	75.6	75.6	75.0	92	73.1	0	0	---	0.00	29.760 
21:50	75.6	75.6	75.0	92	73.1	0	0	---	0.00	29.760 
21:55	75.6	75.6	75.0	92	73.1	0	0	---	0.00	29.760 
22:00	75.6	75.6	74.8	93	73.4	0	0	---	0.00	29.767 
22:05	75.6	75.6	74.8	93	73.4	0	0	---	0.00	29.767 
22:10	75.6	75.6	74.8	93	73.4	0	0	---	0.00	29.767 
22:15	75.4	75.4	74.4	93	73.2	0	0	---	0.00	29.765 
22:20	75.4	75.4	74.4	93	73.2	0	1	315	0.06	29.765 
22:25	75.4	75.4	74.4	93	73.2	0	0	---	0.04	29.765 
22:30	75.4	75.4	74.2	94	73.5	0	0	---	0.00	29.766 
22:35	75.4	75.4	74.2	94	73.5	0	0	---	0.00	29.766 
22:40	75.3	75.3	74.0	94	73.4	0	0	---	0.00	29.766 
22:45	75.1	75.1	73.6	94	73.2	0	0	---	0.00	29.766 
22:50	74.9	74.9	74.9	94	73.0	0	0	---	0.00	29.766 
22:55	74.7	74.7	74.7	94	72.9	0	0	---	0.00	29.766 
23:00	74.7	74.7	74.7	94	72.9	0	0	---	0.00	29.763 
23:05	74.6	74.6	74.6	94	72.8	0	0	---	0.00	29.763 
23:10	74.6	74.6	74.6	94	72.8	0	0	---	0.00	29.763 
23:15	74.6	74.6	74.6	94	72.8	0	0	---	0.00	29.750 
23:20	74.4	74.4	74.4	94	72.6	0	0	---	0.00	29.750 
23:25	74.4	74.4	74.4	94	72.6	0	0	---	0.00	29.750 
23:30	74.4	74.4	74.4	94	72.6	0	0	---	0.00	29.748 
23:35	74.2	74.2	74.2	94	72.4	0	0	---	0.00	29.748 
23:40	74.2	74.2	74.2	94	72.4	0	0	---	0.00	29.748 
23:45	74.2	74.2	74.2	94	72.4	0	0	---	0.00	29.746 
23:50	74.2	74.2	74.2	95	72.7	0	0	---	0.00	29.746 
23:55	74.0	74.0	74.0	94	72.2	0	0	---	0.00	29.746 

CoCoRaHS
IN-AL-39
A2 Web Hosting
Creative Commons License
GoDaddy
search engine by freefind advanced

loaded 2018-11-16 11:37:38 • last modified 2010-11-18 10:43:29
Privacy PolicyDisclaimer
• wx.awcolley.com is powered by PmWiki v.2002016 •
• all content (unless otherwise noted) © 2018 A W Colley